Obelix — 7JAX — position and weather

sailwx.info

Track history (hours):
 
Tides and Currents Weather Stations Pressure Air Temp Water Temp Dewpoint Dewpoint Depression Visibility Wind Speed Wind Dir Waves Ship Positions

Obelix

Last reported at 2014-Jul-29 11:32 UTC. Time now 2014-Jul-31 05:31 UTC.
Position N 34°38' E 134°58'.

Length 74 m; draft 4.5 m.

Type: Ship (hazmat cat D). MMSI: 432528000.

Date/timePositionNaut miles runAvg speedWind from/ knotsBaromVisibWave heightAir tempDewpointWater temp
2014-Jul-29 11:32N 34°38' E 134°58'1111.2
2014-Jul-29 10:33N 34°28' E 135°04'1313.3
2014-Jul-29 09:33N 34°15' E 134°59'1312.7
2014-Jul-29 08:33N 34°02' E 135°01'21510.7
2014-Jul-28 12:29N 34°50' E 139°15'1212.5
2014-Jul-28 11:32N 34°57' E 139°26'1111.7
2014-Jul-28 10:33N 35°04' E 139°37'1211.5
2014-Jul-28 09:33N 35°13' E 139°46'1111.4
2014-Jul-28 08:33N 35°24' E 139°43'8 8.2
2014-Jul-28 07:33N 35°30' E 139°50'3 3.1
2014-Jul-28 06:33N 35°30' E 139°54'6 5.9
2014-Jul-28 05:33N 35°29' E 140°01'0 0.0
2014-Jul-28 04:33N 35°29' E 140°01'0 0.0
2014-Jul-28 03:33N 35°29' E 140°01'0 0.0
2014-Jul-28 02:33N 35°29' E 140°01'0 0.0
2014-Jul-28 01:33N 35°29' E 140°01'0 0.0
2014-Jul-28 00:33N 35°29' E 140°01'1 0.8
2014-Jul-27 23:34N 35°29' E 140°00'5 5.4
2014-Jul-27 22:33N 35°29' E 139°54'1111.3
2014-Jul-27 21:33N 35°21' E 139°44'1211.7
2014-Jul-27 20:33N 35°09' E 139°46'1312.5
2014-Jul-27 19:33N 34°59' E 139°36'1312.7
2014-Jul-27 18:31N 34°52' E 139°23'356 7.4
2014-Jul-25 18:33N 33°50' E 132°18'23 0.9
2014-Jul-24 15:31N 33°59' E 132°44'1311.9
2014-Jul-24 14:28N 33°52' E 132°32'  
2014-Jul-22 06:04N 34°40' E 134°43'4 0.3
2014-Jul-21 15:11N 34°41' E 134°48'710.6
2014-Jul-21 14:33N 34°37' E 134°55'9 9.4
2014-Jul-21 13:33N 34°33' E 135°05'1212.4
2014-Jul-21 12:33N 34°21' E 135°01'1212.0
2014-Jul-21 11:33N 34°09' E 135°00'21010.3
2014-Jul-20 15:10N 34°48' E 139°11'711.5
2014-Jul-20 14:33N 34°52' E 139°18'1010.0
2014-Jul-20 13:33N 34°58' E 139°28'1212.0
2014-Jul-20 12:33N 35°06' E 139°39'1211.9
2014-Jul-20 11:33N 35°16' E 139°46'1010.4
2014-Jul-20 10:33N 35°27' E 139°46'1211.8
2014-Jul-20 09:34N 35°31' E 139°59'3 2.5
2014-Jul-20 08:33N 35°31' E 140°02'0 0.0
2014-Jul-20 07:32N 35°31' E 140°02'0 0.0
2014-Jul-20 06:29N 35°31' E 140°02'0 0.0
2014-Jul-20 05:29N 35°31' E 140°02'0 0.0
2014-Jul-20 04:32N 35°31' E 140°02'1 1.5
2014-Jul-20 03:33N 35°31' E 140°01'1 1.5
2014-Jul-20 02:33N 35°31' E 139°59'0 0.0
2014-Jul-20 01:33N 35°31' E 139°59'5 5.1
2014-Jul-20 00:34N 35°29' E 139°53'1 0.5
2014-Jul-19 23:33N 35°29' E 139°54'7 6.7
2014-Jul-19 22:33N 35°25' E 139°47'1111.0
2014-Jul-19 21:34N 35°14' E 139°47'1211.9
2014-Jul-19 20:33N 35°03' E 139°43'1413.7
2014-Jul-19 19:33N 34°55' E 139°29'  
Track history (hours):
 
Tides and Currents Weather Stations Pressure Air Temp Water Temp Dewpoint Dewpoint Depression Visibility Wind Speed Wind Dir Waves Ship Positions

Obelix

Last reported at 2014-Jul-29 11:32 UTC. Time now 2014-Jul-31 05:31 UTC.
Position N 34°38' E 134°58'.

Length 74 m; draft 4.5 m.

Type: Ship (hazmat cat D). MMSI: 432528000.

Date/timePositionNaut miles runAvg speedWind from/ knotsBaromVisibWave heightAir tempDewpointWater temp
2014-Jul-29 11:32N 34°38' E 134°58'1111.2
2014-Jul-29 10:33N 34°28' E 135°04'1313.3
2014-Jul-29 09:33N 34°15' E 134°59'1312.7
2014-Jul-29 08:33N 34°02' E 135°01'21510.7
2014-Jul-28 12:29N 34°50' E 139°15'1212.5
2014-Jul-28 11:32N 34°57' E 139°26'1111.7
2014-Jul-28 10:33N 35°04' E 139°37'1211.5
2014-Jul-28 09:33N 35°13' E 139°46'1111.4
2014-Jul-28 08:33N 35°24' E 139°43'8 8.2
2014-Jul-28 07:33N 35°30' E 139°50'3 3.1
2014-Jul-28 06:33N 35°30' E 139°54'6 5.9
2014-Jul-28 05:33N 35°29' E 140°01'0 0.0
2014-Jul-28 04:33N 35°29' E 140°01'0 0.0
2014-Jul-28 03:33N 35°29' E 140°01'0 0.0
2014-Jul-28 02:33N 35°29' E 140°01'0 0.0
2014-Jul-28 01:33N 35°29' E 140°01'0 0.0
2014-Jul-28 00:33N 35°29' E 140°01'1 0.8
2014-Jul-27 23:34N 35°29' E 140°00'5 5.4
2014-Jul-27 22:33N 35°29' E 139°54'1111.3
2014-Jul-27 21:33N 35°21' E 139°44'1211.7
2014-Jul-27 20:33N 35°09' E 139°46'1312.5
2014-Jul-27 19:33N 34°59' E 139°36'1312.7
2014-Jul-27 18:31N 34°52' E 139°23'356 7.4
2014-Jul-25 18:33N 33°50' E 132°18'23 0.9
2014-Jul-24 15:31N 33°59' E 132°44'1311.9
2014-Jul-24 14:28N 33°52' E 132°32'  
2014-Jul-22 06:04N 34°40' E 134°43'4 0.3
2014-Jul-21 15:11N 34°41' E 134°48'710.6
2014-Jul-21 14:33N 34°37' E 134°55'9 9.4
2014-Jul-21 13:33N 34°33' E 135°05'1212.4
2014-Jul-21 12:33N 34°21' E 135°01'1212.0
2014-Jul-21 11:33N 34°09' E 135°00'21010.3
2014-Jul-20 15:10N 34°48' E 139°11'711.5
2014-Jul-20 14:33N 34°52' E 139°18'1010.0
2014-Jul-20 13:33N 34°58' E 139°28'1212.0
2014-Jul-20 12:33N 35°06' E 139°39'1211.9
2014-Jul-20 11:33N 35°16' E 139°46'1010.4
2014-Jul-20 10:33N 35°27' E 139°46'1211.8
2014-Jul-20 09:34N 35°31' E 139°59'3 2.5
2014-Jul-20 08:33N 35°31' E 140°02'0 0.0
2014-Jul-20 07:32N 35°31' E 140°02'0 0.0
2014-Jul-20 06:29N 35°31' E 140°02'0 0.0
2014-Jul-20 05:29N 35°31' E 140°02'0 0.0
2014-Jul-20 04:32N 35°31' E 140°02'1 1.5
2014-Jul-20 03:33N 35°31' E 140°01'1 1.5
2014-Jul-20 02:33N 35°31' E 139°59'0 0.0
2014-Jul-20 01:33N 35°31' E 139°59'5 5.1
2014-Jul-20 00:34N 35°29' E 139°53'1 0.5
2014-Jul-19 23:33N 35°29' E 139°54'7 6.7
2014-Jul-19 22:33N 35°25' E 139°47'1111.0
2014-Jul-19 21:34N 35°14' E 139°47'1211.9
2014-Jul-19 20:33N 35°03' E 139°43'1413.7
2014-Jul-19 19:33N 34°55' E 139°29'  

Dump ship's entire track history